ADDS METAR Data INFO
IDs: Format: Raw Decoded Include TAF

Data at: 2055 UTC 24 Jun 2017

KLVJ 241953Z AUTO 34005KT 10SM CLR 31/23 A3006 RMK AO2 SLP178 T03060233
KLVJ 241853Z AUTO 32006KT 10SM CLR 29/23 A3008 RMK AO2 LTG DSNT S AND SW SLP185 T02890233
KLVJ 241753Z AUTO 33004KT 10SM CLR 28/23 A3008 RMK AO2 SLP184 60024 T02780233 10306 20250 51012
KLVJ 241653Z AUTO 34004KT 10SM CLR 26/23 A3007 RMK AO2 RAE07 SLP180 P0000 T02610233
KLVJ 241636Z AUTO 05006KT 10SM CLR 26/23 A3007 RMK AO2 RAE07 P0000 T02560233
KLVJ 241621Z AUTO 01006KT 10SM VCTS FEW038 26/23 A3007 RMK AO2 LTG DSNT W-NE RAE07 P0000 T02560233
KLVJ 241606Z AUTO 01006KT 10SM -RA SCT021 SCT070 26/23 A3007 RMK AO2 LTG DSNT NE AND E AND W P0000 T02560233
KLVJ 241553Z AUTO 01005KT 10SM -RA BKN021 BKN046 OVC090 26/23 A3007 RMK AO2 LTG DSNT ALQDS TSE1455B05E40 SLP181 P0024 T02560233
KLVJ 241546Z AUTO 01006KT 9SM -RA SCT023 BKN031 OVC075 25/23 A3007 RMK AO2 LTG DSNT ALQDS TSE1455B05E40 P0024 T02500228
KLVJ 241528Z AUTO 36009KT 9SM -TSRA SCT027 BKN055 OVC080 26/23 A3006 RMK AO2 LTG DSNT W-NE TSE1455B05 P0023 T02560233
KLVJ 241520Z AUTO 35011KT 3SM TSRA BR FEW006 BKN029 OVC075 25/23 A3006 RMK AO2 LTG DSNT W-NE TSE1455B05 P0023 T02500233
KLVJ 241517Z AUTO 01014KT 2 1/2SM TSRA BR FEW006 BKN035 OVC050 25/23 A3006 RMK AO2 LTG DSNT W-NE TSE1455B05 P0023 T02500228
KLVJ 241513Z AUTO 03012KT 1 1/4SM TSRA BR FEW006 BKN029 OVC040 25/23 A3006 RMK AO2 LTG DSNT W-NE TSE1455B05 P0022 T02500228
KLVJ 241505Z AUTO 30009KT 1 3/4SM +TSRA SCT025 BKN036 OVC055 26/23 A3005 RMK AO2 LTG DSNT ALQDS TSE1455B05 P0014 T02560228
KLVJ 241458Z AUTO 29007KT 8SM VCTS -RA SCT023 BKN034 OVC041 26/23 A3004 RMK AO2 LTG DSNT ALQDS TSE55 P0001 T02610228
KLVJ 241453Z AUTO 29007KT 9SM -TSRA FEW014 BKN024 OVC044 26/23 A3004 RMK AO2 LTG DSNT ALQDS RAB23 TSE23B24 SLP172 P0000 60000 T02610228 53019
KLVJ 241430Z AUTO 26012KT 9SM -TSRA BKN015 BKN025 BKN080 28/24 A3002 RMK AO2 LTG DSNT W-NE RAB23 TSE23B24 P0000 T02830244
KLVJ 241423Z AUTO 26005KT 7SM VCTS -RA SCT017 SCT022 BKN029 30/25 A3002 RMK AO2 LTG DSNT ALQDS RAB23 TSE23 P0000 T03000250
KLVJ 241353Z AUTO 13006KT 7SM TS SCT013 SCT026 31/25 A3001 RMK AO2 LTG DSNT ALQDS TSB51 SLP160 T03060250
KLVJ 241351Z AUTO 14006KT 7SM TS SCT013 SCT022 30/25 A3001 RMK AO2 LTG DSNT ALQDS TSB51
KLVJ 241336Z AUTO 15006KT 7SM VCTS SCT011 BKN017 BKN022 30/26 A3000 RMK AO2 LTG DSNT ALQDS T03000256
KLVJ 241306Z AUTO 15006KT 6SM HZ FEW009 BKN021 29/26 A2999 RMK AO2 LTG DSNT W-NE T02940256
KLVJ 241253Z AUTO 14005KT 6SM HZ BKN021 29/26 A2999 RMK AO2 LTG DSNT NW-NE SLP153 T02940256
KLVJ 241153Z AUTO 00000KT 5SM HZ FEW007 SCT012 OVC020 28/26 A2998 RMK AO2 LTG DSNT ALQDS SLP151 T02830256 10289 20278 51013
KLVJ 241135Z AUTO 00000KT 6SM BR FEW007 BKN012 OVC019 28/26 A2998 RMK AO2 LTG DSNT ALQDS T02780256
KLVJ 241102Z AUTO 00000KT 7SM FEW007 SCT012 BKN020 28/26 A2997 RMK AO2 LTG DSNT SW-N T02830256
KLVJ 241053Z AUTO 00000KT 7SM FEW007 BKN012 BKN018 28/26 A2997 RMK AO2 LTG DSNT W-N SLP149 T02830261
KLVJ 241042Z AUTO 20003KT 7SM OVC011 28/26 A2997 RMK AO2 LTG DSNT NW-NE T02830261
KLVJ 241016Z AUTO 00000KT 7SM BKN009 BKN015 OVC022 28/26 A2997 RMK AO2 LTG DSNT NE T02830261
KLVJ 241008Z AUTO 00000KT 7SM SCT009 BKN013 OVC024 28/26 A2996 RMK AO2 LTG DSNT NE AND S T02830261
KLVJ 240953Z AUTO 00000KT 7SM SCT014 BKN024 OVC075 28/26 A2996 RMK AO2 LTG DSNT S SLP145 T02830261
KLVJ 240933Z AUTO 12003KT 7SM SCT015 OVC022 28/26 A2995 RMK AO2 LTG DSNT S AND SW T02830261
KLVJ 240853Z AUTO 16005KT 7SM BKN010 BKN016 OVC024 28/26 A2994 RMK AO2 LTG DSNT SW SLP138 T02830261 58002
KLVJ 240753Z AUTO 00000KT 7SM BKN008 BKN012 OVC020 28/26 A2996 RMK AO2 SLP144 T02830261
KLVJ 240750Z AUTO 00000KT 7SM BKN009 BKN012 OVC020 28/26 A2996 RMK AO2
KLVJ 240743Z AUTO 00000KT 7SM SCT009 BKN012 OVC022 28/26 A2995 RMK AO2 T02830261
KLVJ 240653Z AUTO 14003KT 7SM FEW014 OVC021 28/26 A2995 RMK AO2 SLP140 T02830256
KLVJ 240606Z AUTO 00000KT 8SM BKN022 28/26 A2995 RMK AO2 T02830256
KLVJ 240553Z AUTO 00000KT 8SM SCT026 28/26 A2994 RMK AO2 SLP139 T02830256 10317 20283 403440278 51015
KLVJ 240453Z AUTO 16004KT 8SM FEW021 28/26 A2993 RMK AO2 SLP134 T02830256
KLVJ 240353Z AUTO 16006KT 9SM CLR 28/26 A2992 RMK AO2 SLP129 T02830256
KLVJ 240253Z AUTO 16003KT 9SM CLR 29/25 A2990 RMK AO2 SLP124 T02890250 53020
KLVJ 240153Z AUTO 16005KT 9SM CLR 29/25 A2987 RMK AO2 SLP115 T02940250
KLVJ 240053Z AUTO 16008KT 8SM CLR 31/24 A2986 RMK AO2 SLP109 T03060244
KLVJ 232353Z AUTO 16010KT 8SM CLR 32/24 A2984 RMK AO2 SLP104 T03170244 10344 20317 55001
KLVJ 232253Z AUTO 16010KT 7SM SCT040 32/24 A2984 RMK AO2 SLP103 T03220239
KLVJ 232153Z AUTO 16010KT 6SM HZ FEW029 SCT037 33/24 A2984 RMK AO2 SLP103 T03330244
KLVJ 232053Z AUTO 18011KT 6SM HZ SCT033 33/24 A2984 RMK AO2 SLP105 T03330239 56010
KLVJ 231953Z AUTO 18012G21KT 6SM HZ FEW027 SCT035 34/24 A2985 RMK AO2 SLP108 T03390244
KLVJ 231853Z AUTO 15012G18KT 5SM HZ SCT029 34/24 A2986 RMK AO2 SLP111 T03390239
KLVJ 231753Z AUTO 16010KT 7SM BKN037 OVC044 33/23 A2987 RMK AO2 SLP115 T03330233 10333 20278 53010
KLVJ 231653Z AUTO 20009KT 8SM CLR 33/23 A2986 RMK AO2 SLP110 T03330228
KLVJ 231553Z AUTO 19012G19KT 8SM FEW028 32/22 A2985 RMK AO2 SLP107 T03220222
KLVJ 231453Z AUTO 20007KT 9SM FEW025 BKN034 30/23 A2984 RMK AO2 SLP104 T03000233 51012
KLVJ 231407Z AUTO 18010G19KT 9SM BKN022 31/24 A2984 RMK AO2 T03060239
KLVJ 231353Z AUTO 19011G17KT 9SM SCT020 30/24 A2983 RMK AO2 SLP101 T03000239
KLVJ 231253Z AUTO 19007KT 8SM CLR 29/24 A2982 RMK AO2 SLP098 T02890244
KLVJ 231153Z AUTO 19006KT 8SM CLR 28/24 A2981 RMK AO2 SLP092 70004 T02780244 10283 20278 53009
KLVJ 231053Z AUTO 17008KT 9SM FEW019 FEW029 28/24 A2979 RMK AO2 SLP088 T02830244
KLVJ 230953Z AUTO 18009KT 9SM CLR 28/24 A2979 RMK AO2 SLP086 T02780244


Page loaded:  20:55 UTC  |   01:55 PM Pacific  |   02:55 PM Mountain  |   03:55 PM Central  |   04:55 PM Eastern

 

ADVISORIES

FORECASTS

FORECASTS

OBSERVATIONS

USER TOOLS

ABOUT US